sensor_id;sensor_type;location;lat;lon;timestamp;temperature;humidity
24148;DHT22;12309;51.450;-2.624;2023-12-07T00:01:19;7.20;99.90
24148;DHT22;12309;51.450;-2.624;2023-12-07T00:06:11;7.20;99.90
24148;DHT22;12309;51.450;-2.624;2023-12-07T00:08:37;7.20;99.90
24148;DHT22;12309;51.450;-2.624;2023-12-07T00:13:28;7.20;99.90
24148;DHT22;12309;51.450;-2.624;2023-12-07T00:15:54;7.20;99.90
24148;DHT22;12309;51.450;-2.624;2023-12-07T00:20:45;7.10;99.90
24148;DHT22;12309;51.450;-2.624;2023-12-07T00:23:11;7.20;99.90
24148;DHT22;12309;51.450;-2.624;2023-12-07T00:25:37;7.20;99.90
24148;DHT22;12309;51.450;-2.624;2023-12-07T00:28:03;7.10;99.90
24148;DHT22;12309;51.450;-2.624;2023-12-07T00:30:30;7.10;99.90
24148;DHT22;12309;51.450;-2.624;2023-12-07T00:32:56;7.10;99.90
24148;DHT22;12309;51.450;-2.624;2023-12-07T00:35:21;7.20;99.90
24148;DHT22;12309;51.450;-2.624;2023-12-07T00:37:48;7.10;99.90
24148;DHT22;12309;51.450;-2.624;2023-12-07T00:40:14;6.90;99.90
24148;DHT22;12309;51.450;-2.624;2023-12-07T00:42:40;6.90;99.90
24148;DHT22;12309;51.450;-2.624;2023-12-07T00:45:06;7.20;99.90
24148;DHT22;12309;51.450;-2.624;2023-12-07T00:47:31;7.30;99.90
24148;DHT22;12309;51.450;-2.624;2023-12-07T00:49:57;7.10;99.90
24148;DHT22;12309;51.450;-2.624;2023-12-07T00:52:23;7.40;99.90
24148;DHT22;12309;51.450;-2.624;2023-12-07T00:54:48;7.00;99.90
24148;DHT22;12309;51.450;-2.624;2023-12-07T00:57:14;7.30;99.90
24148;DHT22;12309;51.450;-2.624;2023-12-07T00:59:40;7.20;99.90
24148;DHT22;12309;51.450;-2.624;2023-12-07T01:02:06;7.00;99.90
24148;DHT22;12309;51.450;-2.624;2023-12-07T01:04:32;6.90;99.90
24148;DHT22;12309;51.450;-2.624;2023-12-07T01:06:59;7.20;99.90
24148;DHT22;12309;51.450;-2.624;2023-12-07T01:09:25;7.20;99.90
24148;DHT22;12309;51.450;-2.624;2023-12-07T01:11:51;7.10;99.90
24148;DHT22;12309;51.450;-2.624;2023-12-07T01:14:17;7.00;99.90
24148;DHT22;12309;51.450;-2.624;2023-12-07T01:16:43;7.50;99.90
24148;DHT22;12309;51.450;-2.624;2023-12-07T01:19:10;6.90;99.90
24148;DHT22;12309;51.450;-2.624;2023-12-07T01:21:36;7.20;99.90
24148;DHT22;12309;51.450;-2.624;2023-12-07T01:24:01;6.80;99.90
24148;DHT22;12309;51.450;-2.624;2023-12-07T01:26:27;7.20;99.90
24148;DHT22;12309;51.450;-2.624;2023-12-07T01:28:53;7.10;99.90
24148;DHT22;12309;51.450;-2.624;2023-12-07T01:31:19;7.20;99.90
24148;DHT22;12309;51.450;-2.624;2023-12-07T01:33:44;6.80;99.90
24148;DHT22;12309;51.450;-2.624;2023-12-07T01:36:10;7.20;99.90
24148;DHT22;12309;51.450;-2.624;2023-12-07T01:38:36;7.10;99.90
24148;DHT22;12309;51.450;-2.624;2023-12-07T01:41:02;7.10;99.90
24148;DHT22;12309;51.450;-2.624;2023-12-07T01:43:28;7.10;99.90
24148;DHT22;12309;51.450;-2.624;2023-12-07T01:45:55;7.10;99.90
24148;DHT22;12309;51.450;-2.624;2023-12-07T01:48:23;7.10;99.90
24148;DHT22;12309;51.450;-2.624;2023-12-07T01:50:50;7.10;99.90
24148;DHT22;12309;51.450;-2.624;2023-12-07T01:53:17;7.10;99.90
24148;DHT22;12309;51.450;-2.624;2023-12-07T01:55:44;7.20;99.90
24148;DHT22;12309;51.450;-2.624;2023-12-07T01:58:10;6.80;99.90
24148;DHT22;12309;51.450;-2.624;2023-12-07T02:00:36;7.10;99.90
24148;DHT22;12309;51.450;-2.624;2023-12-07T02:03:05;6.30;99.90
24148;DHT22;12309;51.450;-2.624;2023-12-07T02:07:58;7.10;99.90
24148;DHT22;12309;51.450;-2.624;2023-12-07T02:10:24;7.20;99.90
24148;DHT22;12309;51.450;-2.624;2023-12-07T02:12:50;7.10;99.90
24148;DHT22;12309;51.450;-2.624;2023-12-07T02:15:17;7.20;99.90
24148;DHT22;12309;51.450;-2.624;2023-12-07T02:23:06;7.30;99.90
24148;DHT22;12309;51.450;-2.624;2023-12-07T02:25:40;7.30;99.90
24148;DHT22;12309;51.450;-2.624;2023-12-07T02:28:09;7.20;99.90
24148;DHT22;12309;51.450;-2.624;2023-12-07T02:30:35;7.50;99.90
24148;DHT22;12309;51.450;-2.624;2023-12-07T02:33:01;7.30;99.90
24148;DHT22;12309;51.450;-2.624;2023-12-07T02:35:28;7.40;99.90
24148;DHT22;12309;51.450;-2.624;2023-12-07T02:37:54;7.70;99.90
24148;DHT22;12309;51.450;-2.624;2023-12-07T02:40:23;7.60;99.90
24148;DHT22;12309;51.450;-2.624;2023-12-07T02:42:49;7.40;99.90
24148;DHT22;12309;51.450;-2.624;2023-12-07T02:45:15;7.50;99.90
24148;DHT22;12309;51.450;-2.624;2023-12-07T02:47:41;7.70;99.90
24148;DHT22;12309;51.450;-2.624;2023-12-07T02:50:09;7.60;99.90
24148;DHT22;12309;51.450;-2.624;2023-12-07T02:52:35;7.90;99.90
24148;DHT22;12309;51.450;-2.624;2023-12-07T02:55:01;7.90;99.90
24148;DHT22;12309;51.450;-2.624;2023-12-07T02:57:28;7.90;99.90
24148;DHT22;12309;51.450;-2.624;2023-12-07T02:59:55;8.20;99.90
24148;DHT22;12309;51.450;-2.624;2023-12-07T03:02:21;7.90;99.90
24148;DHT22;12309;51.450;-2.624;2023-12-07T03:04:46;8.10;99.90
24148;DHT22;12309;51.450;-2.624;2023-12-07T03:07:12;8.10;99.90
24148;DHT22;12309;51.450;-2.624;2023-12-07T03:09:38;8.10;99.90
24148;DHT22;12309;51.450;-2.624;2023-12-07T03:12:04;9.20;99.90
24148;DHT22;12309;51.450;-2.624;2023-12-07T03:14:30;8.20;99.90
24148;DHT22;12309;51.450;-2.624;2023-12-07T03:16:55;8.40;99.90
24148;DHT22;12309;51.450;-2.624;2023-12-07T03:19:21;8.30;99.90
24148;DHT22;12309;51.450;-2.624;2023-12-07T03:21:47;8.40;99.90
24148;DHT22;12309;51.450;-2.624;2023-12-07T03:24:13;8.50;99.90
24148;DHT22;12309;51.450;-2.624;2023-12-07T03:26:38;8.40;99.90
24148;DHT22;12309;51.450;-2.624;2023-12-07T03:29:04;8.40;99.90
24148;DHT22;12309;51.450;-2.624;2023-12-07T03:31:30;8.50;99.90
24148;DHT22;12309;51.450;-2.624;2023-12-07T03:33:56;8.20;99.90
24148;DHT22;12309;51.450;-2.624;2023-12-07T03:36:22;8.60;99.90
24148;DHT22;12309;51.450;-2.624;2023-12-07T03:38:48;8.70;99.90
24148;DHT22;12309;51.450;-2.624;2023-12-07T03:41:14;8.30;99.90
24148;DHT22;12309;51.450;-2.624;2023-12-07T03:43:40;8.50;99.90
24148;DHT22;12309;51.450;-2.624;2023-12-07T03:46:06;8.50;99.90
24148;DHT22;12309;51.450;-2.624;2023-12-07T03:48:33;8.60;99.90
24148;DHT22;12309;51.450;-2.624;2023-12-07T03:50:59;8.70;99.90
24148;DHT22;12309;51.450;-2.624;2023-12-07T03:53:24;8.10;99.90
24148;DHT22;12309;51.450;-2.624;2023-12-07T03:55:50;8.80;99.90
24148;DHT22;12309;51.450;-2.624;2023-12-07T03:58:16;8.50;99.90
24148;DHT22;12309;51.450;-2.624;2023-12-07T04:00:44;8.60;99.90
24148;DHT22;12309;51.450;-2.624;2023-12-07T04:03:10;8.70;99.90
24148;DHT22;12309;51.450;-2.624;2023-12-07T04:05:36;8.50;99.90
24148;DHT22;12309;51.450;-2.624;2023-12-07T04:08:01;8.50;99.90
24148;DHT22;12309;51.450;-2.624;2023-12-07T04:10:27;8.50;99.90
24148;DHT22;12309;51.450;-2.624;2023-12-07T04:12:53;8.80;99.90
24148;DHT22;12309;51.450;-2.624;2023-12-07T04:15:19;8.70;99.90
24148;DHT22;12309;51.450;-2.624;2023-12-07T04:17:45;8.70;99.90
24148;DHT22;12309;51.450;-2.624;2023-12-07T04:20:11;8.50;99.90
24148;DHT22;12309;51.450;-2.624;2023-12-07T04:22:38;8.60;99.90
24148;DHT22;12309;51.450;-2.624;2023-12-07T04:25:05;8.60;99.90
24148;DHT22;12309;51.450;-2.624;2023-12-07T04:27:31;9.00;99.90
24148;DHT22;12309;51.450;-2.624;2023-12-07T04:29:56;8.70;99.90
24148;DHT22;12309;51.450;-2.624;2023-12-07T04:32:22;8.60;99.90
24148;DHT22;12309;51.450;-2.624;2023-12-07T04:34:48;8.40;99.90
24148;DHT22;12309;51.450;-2.624;2023-12-07T04:37:13;8.70;99.90
24148;DHT22;12309;51.450;-2.624;2023-12-07T04:39:39;8.50;99.90
24148;DHT22;12309;51.450;-2.624;2023-12-07T04:42:05;8.60;99.90
24148;DHT22;12309;51.450;-2.624;2023-12-07T04:44:30;8.70;99.90
24148;DHT22;12309;51.450;-2.624;2023-12-07T04:49:22;8.80;99.90
24148;DHT22;12309;51.450;-2.624;2023-12-07T04:54:14;8.70;99.90
24148;DHT22;12309;51.450;-2.624;2023-12-07T04:56:43;8.90;99.90
24148;DHT22;12309;51.450;-2.624;2023-12-07T04:59:09;8.80;99.90
24148;DHT22;12309;51.450;-2.624;2023-12-07T05:01:36;8.90;99.90
24148;DHT22;12309;51.450;-2.624;2023-12-07T05:04:03;8.60;99.90
24148;DHT22;12309;51.450;-2.624;2023-12-07T05:06:31;8.70;99.90
24148;DHT22;12309;51.450;-2.624;2023-12-07T05:08:58;8.60;99.90
24148;DHT22;12309;51.450;-2.624;2023-12-07T05:11:24;8.30;99.90
24148;DHT22;12309;51.450;-2.624;2023-12-07T05:13:49;8.80;99.90
24148;DHT22;12309;51.450;-2.624;2023-12-07T05:16:15;8.50;99.90
24148;DHT22;12309;51.450;-2.624;2023-12-07T05:18:40;8.70;99.90
24148;DHT22;12309;51.450;-2.624;2023-12-07T05:21:06;8.70;99.90
24148;DHT22;12309;51.450;-2.624;2023-12-07T05:23:32;8.90;99.90
24148;DHT22;12309;51.450;-2.624;2023-12-07T05:25:59;8.60;99.90
24148;DHT22;12309;51.450;-2.624;2023-12-07T05:28:25;8.40;99.90
24148;DHT22;12309;51.450;-2.624;2023-12-07T05:30:51;8.50;99.90
24148;DHT22;12309;51.450;-2.624;2023-12-07T05:33:18;8.70;99.90
24148;DHT22;12309;51.450;-2.624;2023-12-07T05:35:45;8.70;99.90
24148;DHT22;12309;51.450;-2.624;2023-12-07T05:38:11;8.40;99.90
24148;DHT22;12309;51.450;-2.624;2023-12-07T05:40:36;8.40;99.90
24148;DHT22;12309;51.450;-2.624;2023-12-07T05:43:02;8.80;99.90
24148;DHT22;12309;51.450;-2.624;2023-12-07T05:45:29;8.70;99.90
24148;DHT22;12309;51.450;-2.624;2023-12-07T05:47:55;8.70;99.90
24148;DHT22;12309;51.450;-2.624;2023-12-07T05:50:20;8.60;99.90
24148;DHT22;12309;51.450;-2.624;2023-12-07T05:52:46;8.70;99.90
24148;DHT22;12309;51.450;-2.624;2023-12-07T05:55:12;8.80;99.90
24148;DHT22;12309;51.450;-2.624;2023-12-07T05:57:39;8.50;99.90
24148;DHT22;12309;51.450;-2.624;2023-12-07T06:00:05;7.80;99.90
24148;DHT22;12309;51.450;-2.624;2023-12-07T06:02:35;8.70;99.90
24148;DHT22;12309;51.450;-2.624;2023-12-07T06:07:29;8.80;99.90
24148;DHT22;12309;51.450;-2.624;2023-12-07T06:12:21;8.60;99.90
24148;DHT22;12309;51.450;-2.624;2023-12-07T06:14:49;8.50;99.90
24148;DHT22;12309;51.450;-2.624;2023-12-07T06:17:16;8.50;99.90
24148;DHT22;12309;51.450;-2.624;2023-12-07T06:19:41;8.60;99.90
24148;DHT22;12309;51.450;-2.624;2023-12-07T06:22:08;7.50;99.90
24148;DHT22;12309;51.450;-2.624;2023-12-07T06:24:33;8.70;99.90
24148;DHT22;12309;51.450;-2.624;2023-12-07T06:26:59;8.30;99.90
24148;DHT22;12309;51.450;-2.624;2023-12-07T06:29:27;8.30;99.90
24148;DHT22;12309;51.450;-2.624;2023-12-07T06:31:53;8.50;99.90
24148;DHT22;12309;51.450;-2.624;2023-12-07T06:34:18;8.60;99.90
24148;DHT22;12309;51.450;-2.624;2023-12-07T06:39:11;8.50;99.90
24148;DHT22;12309;51.450;-2.624;2023-12-07T06:41:36;8.70;99.90
24148;DHT22;12309;51.450;-2.624;2023-12-07T06:44:02;8.70;99.90
24148;DHT22;12309;51.450;-2.624;2023-12-07T06:46:28;8.70;99.90
24148;DHT22;12309;51.450;-2.624;2023-12-07T06:48:54;8.50;99.90
24148;DHT22;12309;51.450;-2.624;2023-12-07T06:51:19;8.80;99.90
24148;DHT22;12309;51.450;-2.624;2023-12-07T06:53:45;8.80;99.90
24148;DHT22;12309;51.450;-2.624;2023-12-07T06:56:11;8.80;99.90
24148;DHT22;12309;51.450;-2.624;2023-12-07T06:58:37;8.60;99.90
24148;DHT22;12309;51.450;-2.624;2023-12-07T07:01:02;8.70;99.90
24148;DHT22;12309;51.450;-2.624;2023-12-07T07:03:28;8.40;99.90
24148;DHT22;12309;51.450;-2.624;2023-12-07T07:05:57;8.70;99.90
24148;DHT22;12309;51.450;-2.624;2023-12-07T07:08:24;8.60;99.90
24148;DHT22;12309;51.450;-2.624;2023-12-07T07:10:50;8.80;99.90
24148;DHT22;12309;51.450;-2.624;2023-12-07T07:13:15;8.70;99.90
24148;DHT22;12309;51.450;-2.624;2023-12-07T07:15:43;8.60;99.90
24148;DHT22;12309;51.450;-2.624;2023-12-07T07:18:13;8.70;99.90
24148;DHT22;12309;51.450;-2.624;2023-12-07T07:20:39;8.90;99.90
24148;DHT22;12309;51.450;-2.624;2023-12-07T07:23:04;8.80;99.90
24148;DHT22;12309;51.450;-2.624;2023-12-07T07:25:30;9.10;99.90
24148;DHT22;12309;51.450;-2.624;2023-12-07T07:27:56;8.70;99.90
24148;DHT22;12309;51.450;-2.624;2023-12-07T07:30:21;9.00;99.90
24148;DHT22;12309;51.450;-2.624;2023-12-07T07:32:47;8.70;99.90
24148;DHT22;12309;51.450;-2.624;2023-12-07T07:35:14;9.20;99.90
24148;DHT22;12309;51.450;-2.624;2023-12-07T07:37:40;8.90;99.90
24148;DHT22;12309;51.450;-2.624;2023-12-07T07:40:08;9.10;99.90
24148;DHT22;12309;51.450;-2.624;2023-12-07T07:42:39;8.90;99.90
24148;DHT22;12309;51.450;-2.624;2023-12-07T07:45:06;8.90;99.90
24148;DHT22;12309;51.450;-2.624;2023-12-07T07:47:32;9.00;99.90
24148;DHT22;12309;51.450;-2.624;2023-12-07T07:49:58;9.00;99.90
24148;DHT22;12309;51.450;-2.624;2023-12-07T07:52:24;9.40;99.90
24148;DHT22;12309;51.450;-2.624;2023-12-07T07:54:50;9.40;99.90
24148;DHT22;12309;51.450;-2.624;2023-12-07T07:57:16;8.90;99.90
24148;DHT22;12309;51.450;-2.624;2023-12-07T07:59:42;8.80;99.90
24148;DHT22;12309;51.450;-2.624;2023-12-07T08:02:07;8.90;99.90
24148;DHT22;12309;51.450;-2.624;2023-12-07T08:04:33;8.70;99.90
24148;DHT22;12309;51.450;-2.624;2023-12-07T08:06:58;8.70;99.90
24148;DHT22;12309;51.450;-2.624;2023-12-07T08:09:24;8.90;99.90
24148;DHT22;12309;51.450;-2.624;2023-12-07T08:11:50;9.10;99.90
24148;DHT22;12309;51.450;-2.624;2023-12-07T08:14:15;8.90;99.90
24148;DHT22;12309;51.450;-2.624;2023-12-07T08:16:44;8.90;99.90
24148;DHT22;12309;51.450;-2.624;2023-12-07T08:19:12;9.00;99.90
24148;DHT22;12309;51.450;-2.624;2023-12-07T08:21:38;9.10;99.90
24148;DHT22;12309;51.450;-2.624;2023-12-07T08:26:31;8.70;99.90
24148;DHT22;12309;51.450;-2.624;2023-12-07T08:28:57;8.60;99.90
24148;DHT22;12309;51.450;-2.624;2023-12-07T08:31:23;8.80;99.90
24148;DHT22;12309;51.450;-2.624;2023-12-07T08:33:50;8.80;99.90
24148;DHT22;12309;51.450;-2.624;2023-12-07T08:36:16;8.80;99.90
24148;DHT22;12309;51.450;-2.624;2023-12-07T08:38:42;9.10;99.90
24148;DHT22;12309;51.450;-2.624;2023-12-07T08:41:08;8.80;99.90
24148;DHT22;12309;51.450;-2.624;2023-12-07T08:43:33;8.60;99.90
24148;DHT22;12309;51.450;-2.624;2023-12-07T08:45:59;8.80;99.90
24148;DHT22;12309;51.450;-2.624;2023-12-07T08:50:50;8.70;99.90
24148;DHT22;12309;51.450;-2.624;2023-12-07T08:53:17;8.90;99.90
24148;DHT22;12309;51.450;-2.624;2023-12-07T08:55:42;8.70;99.90
24148;DHT22;12309;51.450;-2.624;2023-12-07T08:58:08;8.80;99.90
24148;DHT22;12309;51.450;-2.624;2023-12-07T09:00:36;8.80;99.90
24148;DHT22;12309;51.450;-2.624;2023-12-07T09:05:27;9.00;99.90
24148;DHT22;12309;51.450;-2.624;2023-12-07T09:07:53;8.70;99.90
24148;DHT22;12309;51.450;-2.624;2023-12-07T09:10:19;8.90;99.90
24148;DHT22;12309;51.450;-2.624;2023-12-07T09:15:11;8.90;99.90
24148;DHT22;12309;51.450;-2.624;2023-12-07T09:20:08;9.10;99.90
24148;DHT22;12309;51.450;-2.624;2023-12-07T09:22:44;9.00;99.90
24148;DHT22;12309;51.450;-2.624;2023-12-07T09:25:11;8.90;99.90
24148;DHT22;12309;51.450;-2.624;2023-12-07T09:27:38;8.90;99.90
24148;DHT22;12309;51.450;-2.624;2023-12-07T09:30:07;8.80;99.90
24148;DHT22;12309;51.450;-2.624;2023-12-07T09:32:36;8.90;99.90
24148;DHT22;12309;51.450;-2.624;2023-12-07T09:35:07;8.90;99.90
24148;DHT22;12309;51.450;-2.624;2023-12-07T09:37:33;9.20;99.90
24148;DHT22;12309;51.450;-2.624;2023-12-07T09:39:59;8.90;99.90
24148;DHT22;12309;51.450;-2.624;2023-12-07T09:42:26;9.10;99.90
24148;DHT22;12309;51.450;-2.624;2023-12-07T09:44:51;8.70;99.90
24148;DHT22;12309;51.450;-2.624;2023-12-07T09:47:17;8.70;99.90
24148;DHT22;12309;51.450;-2.624;2023-12-07T09:49:44;8.90;99.90
24148;DHT22;12309;51.450;-2.624;2023-12-07T09:52:10;8.80;99.90
24148;DHT22;12309;51.450;-2.624;2023-12-07T09:54:40;8.80;99.90
24148;DHT22;12309;51.450;-2.624;2023-12-07T09:57:07;8.80;99.90
24148;DHT22;12309;51.450;-2.624;2023-12-07T09:59:35;8.50;99.90
24148;DHT22;12309;51.450;-2.624;2023-12-07T10:02:01;8.70;99.90
24148;DHT22;12309;51.450;-2.624;2023-12-07T10:04:27;8.60;99.90
24148;DHT22;12309;51.450;-2.624;2023-12-07T10:06:53;8.50;99.90
24148;DHT22;12309;51.450;-2.624;2023-12-07T10:09:20;8.70;99.90
24148;DHT22;12309;51.450;-2.624;2023-12-07T10:11:47;8.60;99.90
24148;DHT22;12309;51.450;-2.624;2023-12-07T10:14:13;8.60;99.90
24148;DHT22;12309;51.450;-2.624;2023-12-07T10:16:39;8.50;99.90
24148;DHT22;12309;51.450;-2.624;2023-12-07T10:19:17;8.60;99.90
24148;DHT22;12309;51.450;-2.624;2023-12-07T10:21:47;8.60;99.90
24148;DHT22;12309;51.450;-2.624;2023-12-07T10:24:13;8.50;99.90
24148;DHT22;12309;51.450;-2.624;2023-12-07T10:26:39;8.10;99.90
24148;DHT22;12309;51.450;-2.624;2023-12-07T10:29:05;8.80;99.90
24148;DHT22;12309;51.450;-2.624;2023-12-07T10:31:32;8.00;99.90
24148;DHT22;12309;51.450;-2.624;2023-12-07T10:33:59;8.10;99.90
24148;DHT22;12309;51.450;-2.624;2023-12-07T10:36:25;8.70;99.90
24148;DHT22;12309;51.450;-2.624;2023-12-07T10:38:51;8.20;99.90
24148;DHT22;12309;51.450;-2.624;2023-12-07T10:41:22;10.20;99.90
24148;DHT22;12309;51.450;-2.624;2023-12-07T10:44:02;8.60;99.90
24148;DHT22;12309;51.450;-2.624;2023-12-07T10:46:29;8.30;99.90
24148;DHT22;12309;51.450;-2.624;2023-12-07T10:49:01;8.50;99.90
24148;DHT22;12309;51.450;-2.624;2023-12-07T10:51:38;8.40;99.90
24148;DHT22;12309;51.450;-2.624;2023-12-07T10:54:07;8.10;99.90
24148;DHT22;12309;51.450;-2.624;2023-12-07T10:56:45;8.30;99.90
24148;DHT22;12309;51.450;-2.624;2023-12-07T10:59:12;8.70;99.90
24148;DHT22;12309;51.450;-2.624;2023-12-07T11:01:39;10.20;99.90
24148;DHT22;12309;51.450;-2.624;2023-12-07T11:04:06;8.20;99.90
24148;DHT22;12309;51.450;-2.624;2023-12-07T11:06:35;8.40;99.90
24148;DHT22;12309;51.450;-2.624;2023-12-07T11:09:04;8.20;99.90
24148;DHT22;12309;51.450;-2.624;2023-12-07T11:11:44;8.30;99.90
24148;DHT22;12309;51.450;-2.624;2023-12-07T11:14:13;8.50;99.90
24148;DHT22;12309;51.450;-2.624;2023-12-07T11:16:42;8.50;99.90
24148;DHT22;12309;51.450;-2.624;2023-12-07T11:21:58;8.70;99.90
24148;DHT22;12309;51.450;-2.624;2023-12-07T11:24:24;8.30;99.90
24148;DHT22;12309;51.450;-2.624;2023-12-07T11:26:55;8.50;99.90
24148;DHT22;12309;51.450;-2.624;2023-12-07T11:29:21;8.50;99.90
24148;DHT22;12309;51.450;-2.624;2023-12-07T11:31:49;8.50;99.90
24148;DHT22;12309;51.450;-2.624;2023-12-07T11:34:40;8.40;99.90
24148;DHT22;12309;51.450;-2.624;2023-12-07T11:37:07;8.50;99.90
24148;DHT22;12309;51.450;-2.624;2023-12-07T11:39:39;8.50;99.90
24148;DHT22;12309;51.450;-2.624;2023-12-07T11:42:10;8.60;99.90
24148;DHT22;12309;51.450;-2.624;2023-12-07T11:44:43;8.30;99.90
24148;DHT22;12309;51.450;-2.624;2023-12-07T11:47:16;8.50;99.90
24148;DHT22;12309;51.450;-2.624;2023-12-07T11:49:43;8.50;99.90
24148;DHT22;12309;51.450;-2.624;2023-12-07T11:52:16;8.30;99.90
24148;DHT22;12309;51.450;-2.624;2023-12-07T11:54:47;8.60;99.90
24148;DHT22;12309;51.450;-2.624;2023-12-07T11:57:14;8.30;99.90
24148;DHT22;12309;51.450;-2.624;2023-12-07T11:59:40;8.30;99.90
24148;DHT22;12309;51.450;-2.624;2023-12-07T12:02:06;8.40;99.90
24148;DHT22;12309;51.450;-2.624;2023-12-07T12:04:32;8.40;99.90
24148;DHT22;12309;51.450;-2.624;2023-12-07T12:09:24;8.30;99.90
24148;DHT22;12309;51.450;-2.624;2023-12-07T12:11:50;8.60;99.90
24148;DHT22;12309;51.450;-2.624;2023-12-07T12:14:19;8.50;99.90
24148;DHT22;12309;51.450;-2.624;2023-12-07T12:16:46;8.50;99.90
24148;DHT22;12309;51.450;-2.624;2023-12-07T12:19:12;8.50;99.90
24148;DHT22;12309;51.450;-2.624;2023-12-07T12:21:40;8.60;99.90
24148;DHT22;12309;51.450;-2.624;2023-12-07T12:24:07;8.50;99.90
24148;DHT22;12309;51.450;-2.624;2023-12-07T12:26:37;8.40;99.90
24148;DHT22;12309;51.450;-2.624;2023-12-07T12:29:05;8.50;99.90
24148;DHT22;12309;51.450;-2.624;2023-12-07T12:31:31;8.50;99.90
24148;DHT22;12309;51.450;-2.624;2023-12-07T12:33:57;8.20;99.90
24148;DHT22;12309;51.450;-2.624;2023-12-07T12:36:23;8.30;99.90
24148;DHT22;12309;51.450;-2.624;2023-12-07T12:38:52;8.20;99.90
24148;DHT22;12309;51.450;-2.624;2023-12-07T12:41:21;8.50;99.90
24148;DHT22;12309;51.450;-2.624;2023-12-07T12:43:48;8.20;99.90
24148;DHT22;12309;51.450;-2.624;2023-12-07T12:46:15;8.40;99.90
24148;DHT22;12309;51.450;-2.624;2023-12-07T12:49:01;8.50;99.90
24148;DHT22;12309;51.450;-2.624;2023-12-07T12:51:29;8.40;99.90
24148;DHT22;12309;51.450;-2.624;2023-12-07T12:53:58;8.60;99.90
24148;DHT22;12309;51.450;-2.624;2023-12-07T12:56:26;8.40;99.90
24148;DHT22;12309;51.450;-2.624;2023-12-07T12:58:53;8.40;99.90
24148;DHT22;12309;51.450;-2.624;2023-12-07T13:01:22;8.20;99.90
24148;DHT22;12309;51.450;-2.624;2023-12-07T13:03:48;8.30;99.90
24148;DHT22;12309;51.450;-2.624;2023-12-07T13:06:14;8.50;99.90
24148;DHT22;12309;51.450;-2.624;2023-12-07T13:08:44;8.60;99.90
24148;DHT22;12309;51.450;-2.624;2023-12-07T13:11:15;8.80;99.90
24148;DHT22;12309;51.450;-2.624;2023-12-07T13:13:41;8.50;99.90
24148;DHT22;12309;51.450;-2.624;2023-12-07T13:16:07;8.50;99.90
24148;DHT22;12309;51.450;-2.624;2023-12-07T13:18:32;8.40;99.90
24148;DHT22;12309;51.450;-2.624;2023-12-07T13:20:58;8.30;99.90
24148;DHT22;12309;51.450;-2.624;2023-12-07T13:23:25;8.30;99.90
24148;DHT22;12309;51.450;-2.624;2023-12-07T13:25:51;8.50;99.90
24148;DHT22;12309;51.450;-2.624;2023-12-07T13:28:17;8.50;99.90
24148;DHT22;12309;51.450;-2.624;2023-12-07T13:30:42;8.50;99.90
24148;DHT22;12309;51.450;-2.624;2023-12-07T13:33:08;8.60;99.90
24148;DHT22;12309;51.450;-2.624;2023-12-07T13:35:35;8.30;99.90
24148;DHT22;12309;51.450;-2.624;2023-12-07T13:38:01;8.50;99.90
24148;DHT22;12309;51.450;-2.624;2023-12-07T13:40:26;8.40;99.90
24148;DHT22;12309;51.450;-2.624;2023-12-07T13:42:52;8.60;99.90
24148;DHT22;12309;51.450;-2.624;2023-12-07T13:45:18;8.40;99.90
24148;DHT22;12309;51.450;-2.624;2023-12-07T13:47:45;8.50;99.90
24148;DHT22;12309;51.450;-2.624;2023-12-07T13:50:11;8.20;99.90
24148;DHT22;12309;51.450;-2.624;2023-12-07T13:52:38;8.10;99.90
24148;DHT22;12309;51.450;-2.624;2023-12-07T13:55:04;8.50;99.90
24148;DHT22;12309;51.450;-2.624;2023-12-07T13:57:30;8.40;99.90
24148;DHT22;12309;51.450;-2.624;2023-12-07T13:59:56;8.40;99.90
24148;DHT22;12309;51.450;-2.624;2023-12-07T14:02:22;8.50;99.90
24148;DHT22;12309;51.450;-2.624;2023-12-07T14:04:48;8.50;99.90
24148;DHT22;12309;51.450;-2.624;2023-12-07T14:07:21;8.50;99.90
24148;DHT22;12309;51.450;-2.624;2023-12-07T14:09:51;8.30;99.90
24148;DHT22;12309;51.450;-2.624;2023-12-07T14:12:17;8.50;99.90
24148;DHT22;12309;51.450;-2.624;2023-12-07T14:14:45;8.50;99.90
24148;DHT22;12309;51.450;-2.624;2023-12-07T14:17:12;8.50;99.90
24148;DHT22;12309;51.450;-2.624;2023-12-07T14:19:38;8.50;99.90
24148;DHT22;12309;51.450;-2.624;2023-12-07T14:22:04;8.60;99.90
24148;DHT22;12309;51.450;-2.624;2023-12-07T14:24:30;8.80;99.90
24148;DHT22;12309;51.450;-2.624;2023-12-07T14:26:56;8.60;99.90
24148;DHT22;12309;51.450;-2.624;2023-12-07T14:29:23;8.70;99.90
24148;DHT22;12309;51.450;-2.624;2023-12-07T14:31:50;8.60;99.90
24148;DHT22;12309;51.450;-2.624;2023-12-07T14:34:17;8.20;99.90
24148;DHT22;12309;51.450;-2.624;2023-12-07T14:36:43;8.60;99.90
24148;DHT22;12309;51.450;-2.624;2023-12-07T14:39:13;8.60;99.90
24148;DHT22;12309;51.450;-2.624;2023-12-07T14:41:45;8.60;99.90
24148;DHT22;12309;51.450;-2.624;2023-12-07T14:44:15;8.60;99.90
24148;DHT22;12309;51.450;-2.624;2023-12-07T14:46:48;8.60;99.90
24148;DHT22;12309;51.450;-2.624;2023-12-07T14:49:17;8.50;99.90
24148;DHT22;12309;51.450;-2.624;2023-12-07T14:51:49;8.30;99.90
24148;DHT22;12309;51.450;-2.624;2023-12-07T14:54:16;8.40;99.90
24148;DHT22;12309;51.450;-2.624;2023-12-07T14:56:42;8.20;99.90
24148;DHT22;12309;51.450;-2.624;2023-12-07T14:59:09;8.50;99.90
24148;DHT22;12309;51.450;-2.624;2023-12-07T15:01:38;8.50;99.90
24148;DHT22;12309;51.450;-2.624;2023-12-07T15:04:04;8.40;99.90
24148;DHT22;12309;51.450;-2.624;2023-12-07T15:06:31;8.70;99.90
24148;DHT22;12309;51.450;-2.624;2023-12-07T15:08:57;8.40;99.90
24148;DHT22;12309;51.450;-2.624;2023-12-07T15:11:23;8.60;99.90
24148;DHT22;12309;51.450;-2.624;2023-12-07T15:13:49;8.60;99.90
24148;DHT22;12309;51.450;-2.624;2023-12-07T15:16:15;8.60;99.90
24148;DHT22;12309;51.450;-2.624;2023-12-07T15:18:41;8.50;99.90
24148;DHT22;12309;51.450;-2.624;2023-12-07T15:21:12;8.60;99.90
24148;DHT22;12309;51.450;-2.624;2023-12-07T15:23:44;8.60;99.90
24148;DHT22;12309;51.450;-2.624;2023-12-07T15:28:37;8.40;99.90
24148;DHT22;12309;51.450;-2.624;2023-12-07T15:31:04;8.40;99.90
24148;DHT22;12309;51.450;-2.624;2023-12-07T15:33:31;8.40;99.90
24148;DHT22;12309;51.450;-2.624;2023-12-07T15:35:58;8.90;99.90
24148;DHT22;12309;51.450;-2.624;2023-12-07T15:38:24;8.60;99.90
24148;DHT22;12309;51.450;-2.624;2023-12-07T15:40:49;8.60;99.90
24148;DHT22;12309;51.450;-2.624;2023-12-07T15:43:17;8.70;99.90
24148;DHT22;12309;51.450;-2.624;2023-12-07T15:48:09;8.80;99.90
24148;DHT22;12309;51.450;-2.624;2023-12-07T15:53:01;8.60;99.90
24148;DHT22;12309;51.450;-2.624;2023-12-07T15:55:26;8.90;99.90
24148;DHT22;12309;51.450;-2.624;2023-12-07T15:57:52;9.00;99.90
24148;DHT22;12309;51.450;-2.624;2023-12-07T16:02:44;8.60;99.90
24148;DHT22;12309;51.450;-2.624;2023-12-07T16:10:06;9.00;99.90
24148;DHT22;12309;51.450;-2.624;2023-12-07T16:12:34;9.00;99.90
24148;DHT22;12309;51.450;-2.624;2023-12-07T16:15:00;9.00;99.90
24148;DHT22;12309;51.450;-2.624;2023-12-07T16:17:25;8.80;99.90
24148;DHT22;12309;51.450;-2.624;2023-12-07T16:34:28;9.10;99.90
24148;DHT22;12309;51.450;-2.624;2023-12-07T16:39:20;9.20;99.90
24148;DHT22;12309;51.450;-2.624;2023-12-07T16:46:45;9.00;99.90
24148;DHT22;12309;51.450;-2.624;2023-12-07T16:49:12;9.10;99.90